Time,TemperatureF,DewpointF,PressureIn,WindDirection,WindDirectionDegrees,WindSpeedMPH,WindSpeedGustMPH,Humidity,HourlyPrecipIn,Conditions,Clouds,dailyrainin,SoftwareType,DateUTC
2013-09-23 00:12:00,-999.0,-99.9,-100.00,SSW,202,10.0,-999.0,-999,-99.99,,,-99.99,,2013-09-23 07:12:00,
2013-09-23 00:22:00,-999.0,-99.9,-100.00,SSW,202,10.0,-999.0,-999,-99.99,,,-99.99,,2013-09-23 07:22:00,
2013-09-23 00:32:00,-999.0,-99.9,-100.00,SSW,196,11.0,-999.0,-999,-99.99,,,-99.99,,2013-09-23 07:32:00,
2013-09-23 00:42:00,-999.0,-99.9,-100.00,SSW,196,11.0,-999.0,-999,-99.99,,,-99.99,,2013-09-23 07:42:00,
2013-09-23 01:11:00,-999.0,-99.9,-100.00,SSW,213,11.0,-999.0,-999,-99.99,,,-99.99,,2013-09-23 08:11:00,
2013-09-23 01:23:00,-999.0,-99.9,-100.00,SSW,213,12.0,-999.0,-999,-99.99,,,-99.99,,2013-09-23 08:23:00,
2013-09-23 01:32:00,-999.0,-99.9,-100.00,SSW,213,12.0,-999.0,-999,-99.99,,,-99.99,,2013-09-23 08:32:00,
2013-09-23 01:42:00,-999.0,-99.9,-100.00,SW,225,12.0,-999.0,-999,-99.99,,,-99.99,,2013-09-23 08:42:00,
2013-09-23 02:11:00,-999.0,-99.9,-100.00,SW,219,12.0,-999.0,-999,-99.99,,,-99.99,,2013-09-23 09:11:00,
2013-09-23 02:22:00,-999.0,-99.9,-100.00,SSW,213,12.0,-999.0,-999,-99.99,,,-99.99,,2013-09-23 09:22:00,
2013-09-23 02:33:00,-999.0,-99.9,-100.00,SSW,213,12.0,-999.0,-999,-99.99,,,-99.99,,2013-09-23 09:33:00,
2013-09-23 02:43:00,-999.0,-99.9,-100.00,SW,225,10.0,-999.0,-999,-99.99,,,-99.99,,2013-09-23 09:43:00,
2013-09-23 02:53:00,-999.0,-99.9,-100.00,SW,219,12.0,-999.0,-999,-99.99,,,-99.99,,2013-09-23 09:53:00,
2013-09-23 03:04:00,-999.0,-99.9,-100.00,SSW,208,9.0,-999.0,-999,-99.99,,,-99.99,,2013-09-23 10:04:00,
2013-09-23 03:13:00,-999.0,-99.9,-100.00,SSW,208,9.0,-999.0,-999,-99.99,,,-99.99,,2013-09-23 10:13:00,
2013-09-23 03:23:00,-999.0,-99.9,-100.00,SSW,213,10.0,-999.0,-999,-99.99,,,-99.99,,2013-09-23 10:23:00,
2013-09-23 03:33:00,-999.0,-99.9,-100.00,SSW,213,9.0,-999.0,-999,-99.99,,,-99.99,,2013-09-23 10:33:00,
2013-09-23 03:43:00,-999.0,-99.9,-100.00,SSW,213,9.0,-999.0,-999,-99.99,,,-99.99,,2013-09-23 10:43:00,
2013-09-23 04:12:00,59.0,29.0,-100.00,North,-999,-999.0,-999.0,32,-99.99,,,-99.99,,2013-09-23 11:12:00,
2013-09-23 05:11:00,-999.0,-99.9,-100.00,SSW,208,8.0,-999.0,-999,-99.99,,,-99.99,,2013-09-23 12:11:00,
2013-09-23 05:22:00,-999.0,-99.9,-100.00,SSW,208,8.0,-999.0,-999,-99.99,,,-99.99,,2013-09-23 12:22:00,
2013-09-23 05:32:00,-999.0,-99.9,-100.00,SSW,208,8.0,-999.0,-999,-99.99,,,-99.99,,2013-09-23 12:32:00,
2013-09-23 05:42:00,-999.0,-99.9,-100.00,SSW,213,4.0,-999.0,-999,-99.99,,,-99.99,,2013-09-23 12:42:00,
2013-09-23 05:52:00,-999.0,-99.9,-100.00,SSW,213,4.0,-999.0,-999,-99.99,,,-99.99,,2013-09-23 12:52:00,
2013-09-23 06:02:00,-999.0,-99.9,-100.00,SSW,213,4.0,-999.0,-999,-99.99,,,-99.99,,2013-09-23 13:02:00,
2013-09-23 06:11:00,-999.0,-99.9,-100.00,SSW,196,5.0,-999.0,-999,-99.99,,,-99.99,,2013-09-23 13:11:00,
2013-09-23 06:42:00,62.0,-99.9,-100.00,North,-999,-999.0,-999.0,-999,-99.99,,,-99.99,,2013-09-23 13:42:00,
2013-09-23 08:11:00,66.0,31.0,-100.00,North,-999,-999.0,-999.0,26,-99.99,,,-99.99,,2013-09-23 15:11:00,
2013-09-23 08:21:00,66.0,31.0,-100.00,North,-999,-999.0,-999.0,26,-99.99,,,-99.99,,2013-09-23 15:21:00,
2013-09-23 09:12:00,71.0,32.0,-100.00,North,-999,-999.0,-999.0,24,-99.99,,,0.00,,2013-09-23 16:12:00,
2013-09-23 09:24:00,-999.0,-99.9,-100.00,NNE,28,7.0,-999.0,-999,-99.99,,,-99.99,,2013-09-23 16:24:00,
2013-09-23 09:33:00,-999.0,-99.9,-100.00,NNE,28,7.0,-999.0,-999,-99.99,,,-99.99,,2013-09-23 16:33:00,
2013-09-23 09:43:00,-999.0,-99.9,-100.00,NNE,28,7.0,-999.0,-999,-99.99,,,-99.99,,2013-09-23 16:43:00,
2013-09-23 10:12:00,74.0,34.0,-100.00,NE,39,8.0,-999.0,22,-99.99,,,-99.99,,2013-09-23 17:12:00,
2013-09-23 10:24:00,-999.0,-99.9,-100.00,ENE,67,0.0,-999.0,-999,-99.99,,,-99.99,,2013-09-23 17:24:00,
2013-09-23 10:34:00,-999.0,-99.9,-100.00,ENE,67,0.0,-999.0,-999,-99.99,,,-99.99,,2013-09-23 17:34:00,
2013-09-23 10:42:00,-999.0,-99.9,-100.00,ENE,67,0.0,-999.0,-999,-99.99,,,-99.99,,2013-09-23 17:42:00,
2013-09-23 10:52:00,-999.0,-99.9,-100.00,North,0,9.0,-999.0,-999,-99.99,,,-99.99,,2013-09-23 17:52:00,
2013-09-23 11:02:00,-999.0,-99.9,-100.00,North,0,9.0,-999.0,-999,-99.99,,,-99.99,,2013-09-23 18:02:00,
2013-09-23 11:13:00,-999.0,-99.9,-100.00,North,5,9.0,-999.0,-999,-99.99,,,-99.99,,2013-09-23 18:13:00,
2013-09-23 11:22:00,-999.0,-99.9,-100.00,NE,50,7.0,-999.0,-999,-99.99,,,-99.99,,2013-09-23 18:22:00,
2013-09-23 11:33:00,-999.0,-99.9,-100.00,NE,50,7.0,-999.0,-999,-99.99,,,-99.99,,2013-09-23 18:33:00,
2013-09-23 11:42:00,-999.0,-99.9,-100.00,NE,50,7.0,-999.0,-999,-99.99,,,-99.99,,2013-09-23 18:42:00,
2013-09-23 11:52:00,-999.0,-99.9,-100.00,North,354,6.0,-999.0,-999,-99.99,,,-99.99,,2013-09-23 18:52:00,
2013-09-23 12:02:00,-999.0,-99.9,-100.00,North,354,6.0,-999.0,-999,-99.99,,,-99.99,,2013-09-23 19:02:00,
2013-09-23 12:12:00,-999.0,-99.9,-100.00,North,11,7.0,-999.0,-999,-99.99,,,-99.99,,2013-09-23 19:12:00,
2013-09-23 12:33:00,-999.0,-99.9,-100.00,NNE,33,7.0,-999.0,-999,-99.99,,,-99.99,,2013-09-23 19:33:00,
2013-09-23 12:42:00,-999.0,-99.9,-100.00,NNE,33,7.0,-999.0,-999,-99.99,,,-99.99,,2013-09-23 19:42:00,
2013-09-23 12:53:00,-999.0,-99.9,-100.00,NNW,331,6.0,-999.0,-999,-99.99,,,-99.99,,2013-09-23 19:53:00,
2013-09-23 13:03:00,-999.0,-99.9,-100.00,NNW,331,6.0,-999.0,-999,-99.99,,,-99.99,,2013-09-23 20:03:00,
2013-09-23 13:12:00,-999.0,-99.9,-100.00,NNW,331,6.0,-999.0,-999,-99.99,,,-99.99,,2013-09-23 20:12:00,
2013-09-23 13:22:00,-999.0,-99.9,-100.00,ENE,61,7.0,-999.0,-999,-99.99,,,-99.99,,2013-09-23 20:22:00,
2013-09-23 13:52:00,-999.0,-99.9,-100.00,NE,50,5.0,-999.0,-999,-99.99,,,-99.99,,2013-09-23 20:52:00,
2013-09-23 14:02:00,-999.0,-99.9,-100.00,NE,50,5.0,-999.0,-999,-99.99,,,-99.99,,2013-09-23 21:02:00,
2013-09-23 14:23:00,83.0,31.0,-100.00,North,-999,-999.0,-999.0,15,-99.99,,,-99.99,,2013-09-23 21:23:00,
2013-09-23 14:34:00,-999.0,-99.9,-100.00,NNE,33,4.0,-999.0,-999,-99.99,,,-99.99,,2013-09-23 21:34:00,
2013-09-23 14:44:00,-999.0,-99.9,-100.00,NNE,33,4.0,-999.0,-999,-99.99,,,-99.99,,2013-09-23 21:44:00,
2013-09-23 14:54:00,-999.0,-99.9,-100.00,NNE,33,4.0,-999.0,-999,-99.99,,,-99.99,,2013-09-23 21:54:00,
2013-09-23 15:04:00,-999.0,-99.9,-100.00,NNE,33,4.0,-999.0,-999,-99.99,,,-99.99,,2013-09-23 22:04:00,
2013-09-23 15:14:00,-999.0,-99.9,-100.00,West,270,4.0,-999.0,-999,-99.99,,,-99.99,,2013-09-23 22:14:00,
2013-09-23 15:23:00,86.0,29.0,-100.00,North,-999,-999.0,-999.0,13,-99.99,,,-99.99,,2013-09-23 22:23:00,
2013-09-23 15:41:00,-999.0,-99.9,-100.00,WNW,286,3.0,-999.0,-999,-99.99,,,-99.99,,2013-09-23 22:41:00,
2013-09-23 15:54:00,-999.0,-99.9,-100.00,WNW,286,3.0,-999.0,-999,-99.99,,,-99.99,,2013-09-23 22:54:00,
2013-09-23 16:03:00,-999.0,-99.9,-100.00,WNW,286,3.0,-999.0,-999,-99.99,,,-99.99,,2013-09-23 23:03:00,
2013-09-23 16:12:00,-999.0,-99.9,-100.00,WNW,286,3.0,-999.0,-999,-99.99,,,-99.99,,2013-09-23 23:12:00,
2013-09-23 16:23:00,-999.0,-99.9,-100.00,WNW,286,3.0,-999.0,-999,-99.99,,,-99.99,,2013-09-23 23:23:00,
2013-09-23 16:34:00,-999.0,-99.9,-100.00,WNW,286,3.0,-999.0,-999,-99.99,,,-99.99,,2013-09-23 23:34:00,
2013-09-23 16:54:00,-999.0,-99.9,-100.00,North,354,3.0,-999.0,-999,-99.99,,,-99.99,,2013-09-23 23:54:00,
2013-09-23 17:02:00,-999.0,-99.9,-100.00,North,354,3.0,-999.0,-999,-99.99,,,-99.99,,2013-09-24 00:02:00,
2013-09-23 17:12:00,-999.0,-99.9,-100.00,North,354,3.0,-999.0,-999,-99.99,,,-99.99,,2013-09-24 00:12:00,
2013-09-23 17:22:00,-999.0,-99.9,-100.00,North,354,3.0,-999.0,-999,-99.99,,,-99.99,,2013-09-24 00:22:00,
2013-09-23 17:32:00,-999.0,-99.9,-100.00,North,354,3.0,-999.0,-999,-99.99,,,-99.99,,2013-09-24 00:32:00,
2013-09-23 17:43:00,-999.0,-99.9,-100.00,ENE,73,3.0,-999.0,-999,-99.99,,,-99.99,,2013-09-24 00:43:00,
2013-09-23 17:52:00,-999.0,-99.9,-100.00,ENE,73,3.0,-999.0,-999,-99.99,,,-99.99,,2013-09-24 00:52:00,
2013-09-23 18:02:00,-999.0,-99.9,-100.00,ENE,73,3.0,-999.0,-999,-99.99,,,-99.99,,2013-09-24 01:02:00,
2013-09-23 18:12:00,-999.0,-99.9,-100.00,ENE,73,3.0,-999.0,-999,-99.99,,,-99.99,,2013-09-24 01:12:00,
2013-09-23 18:22:00,83.0,-99.9,-100.00,North,-999,-999.0,-999.0,-999,-99.99,,,-99.99,,2013-09-24 01:22:00,
2013-09-23 18:32:00,-999.0,-99.9,-100.00,ENE,61,3.0,-999.0,-999,-99.99,,,-99.99,,2013-09-24 01:32:00,
2013-09-23 18:43:00,-999.0,-99.9,-100.00,ENE,61,3.0,-999.0,-999,-99.99,,,-99.99,,2013-09-24 01:43:00,
2013-09-23 18:52:00,-999.0,-99.9,-100.00,ENE,61,3.0,-999.0,-999,-99.99,,,-99.99,,2013-09-24 01:52:00,
2013-09-23 19:02:00,-999.0,-99.9,-100.00,ENE,61,3.0,-999.0,-999,-99.99,,,-99.99,,2013-09-24 02:02:00,
2013-09-23 19:22:00,80.0,31.0,-100.00,North,-999,-999.0,-999.0,17,-99.99,,,-99.99,,2013-09-24 02:22:00,
2013-09-23 19:32:00,80.0,31.0,-100.00,North,-999,-999.0,-999.0,17,-99.99,,,-99.99,,2013-09-24 02:32:00,
2013-09-23 19:43:00,-999.0,-99.9,-100.00,SE,135,2.0,-999.0,-999,-99.99,,,-99.99,,2013-09-24 02:43:00,
2013-09-23 19:52:00,-999.0,-99.9,-100.00,SE,135,2.0,-999.0,-999,-99.99,,,-99.99,,2013-09-24 02:52:00,
2013-09-23 20:03:00,-999.0,-99.9,-100.00,SE,135,2.0,-999.0,-999,-99.99,,,-99.99,,2013-09-24 03:03:00,
2013-09-23 20:12:00,-999.0,-99.9,-100.00,SE,135,2.0,-999.0,-999,-99.99,,,-99.99,,2013-09-24 03:12:00,
2013-09-23 20:22:00,-999.0,-99.9,-100.00,SSW,213,4.0,-999.0,-999,-99.99,,,-99.99,,2013-09-24 03:22:00,
2013-09-23 20:45:00,74.0,-99.9,-100.00,North,-999,-999.0,-999.0,-999,-99.99,,,-99.99,,2013-09-24 03:45:00,
2013-09-23 20:55:00,-999.0,-99.9,-100.00,WSW,253,4.0,-999.0,-999,-99.99,,,-99.99,,2013-09-24 03:55:00,
2013-09-23 21:14:00,70.0,32.0,-100.00,North,-999,-999.0,-999.0,24,-99.99,,,0.00,,2013-09-24 04:14:00,
2013-09-23 21:24:00,70.0,32.0,-100.00,North,-999,-999.0,-999.0,24,-99.99,,,0.00,,2013-09-24 04:24:00,
2013-09-23 21:34:00,-999.0,-99.9,-100.00,SW,230,4.0,-999.0,-999,-99.99,,,-99.99,,2013-09-24 04:34:00,
2013-09-23 21:44:00,-999.0,-99.9,-100.00,SW,230,4.0,-999.0,-999,-99.99,,,-99.99,,2013-09-24 04:44:00,
2013-09-23 21:54:00,-999.0,-99.9,-100.00,SSW,208,7.0,-999.0,-999,-99.99,,,-99.99,,2013-09-24 04:54:00,
2013-09-23 22:03:00,-999.0,-99.9,-100.00,SSW,208,7.0,-999.0,-999,-99.99,,,-99.99,,2013-09-24 05:03:00,
2013-09-23 22:23:00,-999.0,-99.9,-100.00,SSW,208,7.0,-999.0,-999,-99.99,,,-99.99,,2013-09-24 05:23:00,
2013-09-23 22:34:00,-999.0,-99.9,-100.00,SSW,213,7.0,-999.0,-999,-99.99,,,-99.99,,2013-09-24 05:34:00,
2013-09-23 22:43:00,-999.0,-99.9,-100.00,SSW,213,7.0,-999.0,-999,-99.99,,,-99.99,,2013-09-24 05:43:00,
2013-09-23 22:53:00,-999.0,-99.9,-100.00,SSW,202,7.0,-999.0,-999,-99.99,,,-99.99,,2013-09-24 05:53:00,
2013-09-23 23:03:00,-999.0,-99.9,-100.00,SSW,202,7.0,-999.0,-999,-99.99,,,-99.99,,2013-09-24 06:03:00,
2013-09-23 23:13:00,-999.0,-99.9,-100.00,SSW,202,7.0,-999.0,-999,-99.99,,,-99.99,,2013-09-24 06:13:00,
2013-09-23 23:22:00,67.0,-99.9,-100.00,North,-999,-999.0,-999.0,-999,-99.99,,,-99.99,,2013-09-24 06:22:00,
2013-09-23 23:32:00,67.0,-99.9,-100.00,North,-999,-999.0,-999.0,-999,-99.99,,,-99.99,,2013-09-24 06:32:00,
2013-09-23 23:42:00,-999.0,-99.9,-100.00,South,191,7.0,-999.0,-999,-99.99,,,-99.99,,2013-09-24 06:42:00,
2013-09-23 23:52:00,-999.0,-99.9,-100.00,South,191,7.0,-999.0,-999,-99.99,,,-99.99,,2013-09-24 06:52:00,